createdAt,value
2018-10-18T00:01:50.844Z,0.30
2018-10-18T00:06:53.829Z,0.30
2018-10-18T00:11:57.199Z,0.30
2018-10-18T00:17:00.176Z,0.30
2018-10-18T00:22:05.564Z,0.30
2018-10-18T00:27:08.670Z,0.30
2018-10-18T00:32:11.987Z,0.30
2018-10-18T00:37:14.836Z,0.80
2018-10-18T00:42:17.941Z,3.20
2018-10-18T00:47:20.784Z,0.30
2018-10-18T00:52:23.749Z,0.30
2018-10-18T00:57:26.850Z,0.30
2018-10-18T01:02:29.861Z,0.30
2018-10-18T01:07:32.833Z,0.30
2018-10-18T01:12:35.904Z,0.30
2018-10-18T01:17:38.944Z,0.30
2018-10-18T01:22:41.908Z,0.30
2018-10-18T01:27:44.878Z,0.30
2018-10-18T01:32:47.870Z,0.30
2018-10-18T01:37:50.848Z,0.30
2018-10-18T01:42:53.824Z,0.30
2018-10-18T01:47:56.826Z,0.30
2018-10-18T01:52:59.704Z,0.30
2018-10-18T01:58:05.257Z,0.30
2018-10-18T02:03:08.284Z,0.30
2018-10-18T02:08:11.390Z,0.40
2018-10-18T02:13:14.285Z,0.30
2018-10-18T02:18:17.356Z,0.40
2018-10-18T02:23:20.396Z,0.40
2018-10-18T02:28:23.332Z,0.40
2018-10-18T02:33:26.279Z,0.30
2018-10-18T02:38:29.204Z,0.40
2018-10-18T02:43:32.169Z,0.40
2018-10-18T02:48:35.255Z,0.40
2018-10-18T02:53:38.244Z,0.40
2018-10-18T02:58:41.201Z,0.30
2018-10-18T03:03:44.322Z,0.30
2018-10-18T03:08:47.281Z,0.37
2018-10-18T03:13:50.216Z,0.30
2018-10-18T03:18:53.152Z,0.30
2018-10-18T03:23:56.093Z,0.33
2018-10-18T03:28:59.036Z,0.30
2018-10-18T03:34:02.324Z,0.30
2018-10-18T03:39:08.550Z,0.30
2018-10-18T03:44:11.503Z,0.30
2018-10-18T03:49:14.436Z,0.30
2018-10-18T03:54:17.530Z,0.30
2018-10-18T03:59:20.421Z,0.30
2018-10-18T04:04:23.291Z,0.30
2018-10-18T04:09:26.248Z,0.30
2018-10-18T04:14:29.220Z,0.30
2018-10-18T04:19:32.505Z,0.30
2018-10-18T04:24:35.502Z,0.30
2018-10-18T04:29:38.459Z,0.30
2018-10-18T04:34:41.375Z,0.30
2018-10-18T04:39:44.559Z,0.30
2018-10-18T04:44:47.494Z,0.30
2018-10-18T04:49:50.466Z,0.30
2018-10-18T04:54:53.410Z,0.30
2018-10-18T04:59:56.376Z,0.30
2018-10-18T05:05:16.611Z,0.30
2018-10-18T05:10:19.604Z,0.30
2018-10-18T05:15:22.551Z,0.30
2018-10-18T05:20:25.532Z,0.30
2018-10-18T05:25:28.784Z,0.30
2018-10-18T05:30:31.601Z,0.30
2018-10-18T05:35:34.629Z,0.30
2018-10-18T05:40:37.605Z,0.30
2018-10-18T05:45:40.670Z,0.30
2018-10-18T05:50:43.605Z,0.30
2018-10-18T05:55:46.621Z,0.30
2018-10-18T06:00:49.669Z,0.30
2018-10-18T06:05:52.704Z,0.30
2018-10-18T06:11:32.660Z,0.30
2018-10-18T06:16:35.740Z,0.30
2018-10-18T06:21:38.717Z,0.30
2018-10-18T06:26:41.718Z,0.30
2018-10-18T06:31:44.744Z,0.30
2018-10-18T06:36:47.772Z,0.30
2018-10-18T06:41:50.753Z,0.40
2018-10-18T06:46:53.822Z,0.30
2018-10-18T06:51:56.954Z,0.40
2018-10-18T06:57:00.043Z,0.40
2018-10-18T07:02:04.274Z,0.40
2018-10-18T07:07:07.291Z,0.40
2018-10-18T07:12:10.355Z,0.40
2018-10-18T07:17:13.260Z,0.40
2018-10-18T07:22:16.220Z,0.40
2018-10-18T07:27:19.280Z,0.40
2018-10-18T07:32:22.372Z,4.33
2018-10-18T07:37:25.370Z,1.53
2018-10-18T07:42:28.515Z,0.40
2018-10-18T07:47:31.493Z,0.40
2018-10-18T07:52:34.502Z,0.40
2018-10-18T07:57:37.512Z,3.53
2018-10-18T08:02:41.060Z,0.40
2018-10-18T08:07:44.145Z,2.30
2018-10-18T08:12:47.333Z,0.40
2018-10-18T08:17:50.323Z,0.40
2018-10-18T08:22:53.295Z,3.03
2018-10-18T08:27:56.252Z,4.53
2018-10-18T08:32:59.382Z,11.10
2018-10-18T08:38:04.496Z,20.70
2018-10-18T08:43:07.359Z,20.87
2018-10-18T08:48:10.296Z,22.30
2018-10-18T08:53:13.241Z,20.90
2018-10-18T08:58:16.184Z,26.27
2018-10-18T09:03:19.203Z,27.50
2018-10-18T09:08:22.227Z,15.47
2018-10-18T09:13:25.226Z,26.57
2018-10-18T09:18:28.156Z,33.87
2018-10-18T09:23:31.122Z,24.53
2018-10-18T09:28:34.136Z,11.90
2018-10-18T09:33:37.142Z,26.43
2018-10-18T09:38:40.120Z,24.93
2018-10-18T09:43:43.109Z,28.10
2018-10-18T09:48:46.101Z,38.33
2018-10-18T09:53:49.077Z,37.57
2018-10-18T09:58:52.134Z,5.57
2018-10-18T10:03:55.355Z,20.37
2018-10-18T10:08:58.449Z,25.43
2018-10-18T10:14:04.211Z,20.70
2018-10-18T10:19:07.224Z,10.43
2018-10-18T10:24:10.289Z,15.93
2018-10-18T10:29:13.269Z,3.80
2018-10-18T10:34:17.030Z,14.40
2018-10-18T10:39:20.055Z,19.87
2018-10-18T10:44:22.941Z,14.30
2018-10-18T10:49:25.928Z,10.13
2018-10-18T10:54:28.928Z,16.83
2018-10-18T10:59:31.958Z,5.97
2018-10-18T11:04:34.899Z,13.87
2018-10-18T11:09:38.000Z,6.70
2018-10-18T11:14:40.982Z,14.67
2018-10-18T11:19:44.113Z,24.73
2018-10-18T11:24:47.165Z,8.97
2018-10-18T11:29:50.139Z,4.53
2018-10-18T11:34:53.135Z,28.80
2018-10-18T11:39:56.093Z,14.07
2018-10-18T11:44:59.193Z,21.13
2018-10-18T11:50:05.274Z,2.70
2018-10-18T11:55:08.251Z,23.13
2018-10-18T12:00:15.813Z,18.87
2018-10-18T12:05:18.945Z,5.57
2018-10-18T12:10:21.827Z,11.73
2018-10-18T12:15:24.812Z,15.07
2018-10-18T12:20:27.834Z,27.13
2018-10-18T12:25:30.839Z,1.67
2018-10-18T12:30:33.839Z,0.70
2018-10-18T12:35:36.919Z,6.67
2018-10-18T12:40:39.893Z,15.43
2018-10-18T12:45:43.133Z,23.23
2018-10-18T12:50:46.210Z,10.90
2018-10-18T12:55:49.221Z,11.93
2018-10-18T13:00:52.169Z,11.00
2018-10-18T13:05:55.056Z,16.83
2018-10-18T13:10:57.965Z,7.10
2018-10-18T13:16:02.685Z,28.73
2018-10-18T13:21:05.762Z,23.77
2018-10-18T13:26:08.944Z,19.53
2018-10-18T13:31:11.958Z,8.53
2018-10-18T13:36:15.011Z,13.70
2018-10-18T13:41:17.922Z,18.43
2018-10-18T13:46:20.961Z,14.67
2018-10-18T13:51:23.945Z,9.97
2018-10-18T13:56:27.003Z,42.67
2018-10-18T14:01:29.987Z,25.77
2018-10-18T14:06:33.100Z,16.60
2018-10-18T14:11:36.143Z,23.83
2018-10-18T14:16:39.254Z,17.00
2018-10-18T14:21:42.308Z,26.90
2018-10-18T14:26:45.368Z,21.50
2018-10-18T14:31:48.460Z,30.03
2018-10-18T14:36:51.600Z,16.10
2018-10-18T14:41:54.566Z,18.73
2018-10-18T14:46:57.580Z,11.73
2018-10-18T14:52:00.663Z,14.63
2018-10-18T14:57:03.726Z,15.93
2018-10-18T15:02:06.962Z,16.43
2018-10-18T15:07:10.068Z,14.63
2018-10-18T15:12:13.088Z,16.90
2018-10-18T15:17:16.106Z,18.33
2018-10-18T15:22:19.095Z,6.67
2018-10-18T15:27:22.479Z,6.67
2018-10-18T15:32:25.470Z,15.17
2018-10-18T15:37:28.381Z,10.03
2018-10-18T15:42:31.464Z,12.80
2018-10-18T15:47:34.511Z,10.00
2018-10-18T15:52:37.434Z,28.60
2018-10-18T15:57:40.418Z,4.07
2018-10-18T16:02:43.416Z,12.87
2018-10-18T16:07:46.553Z,10.50
2018-10-18T16:12:49.567Z,5.63
2018-10-18T16:17:52.723Z,1.57
2018-10-18T16:22:55.633Z,19.93
2018-10-18T16:27:58.717Z,6.43
2018-10-18T16:33:01.627Z,1.37
2018-10-18T16:38:05.040Z,1.70
2018-10-18T16:43:08.124Z,6.33
2018-10-18T16:48:11.212Z,4.87
2018-10-18T16:53:14.316Z,6.90
2018-10-18T16:58:17.507Z,11.63
2018-10-18T17:03:20.353Z,3.70
2018-10-18T17:08:23.299Z,5.53
2018-10-18T17:13:26.235Z,1.97
2018-10-18T17:18:29.198Z,5.40
2018-10-18T17:23:32.130Z,10.43
2018-10-18T17:28:35.129Z,10.80
2018-10-18T17:33:38.078Z,5.50
2018-10-18T17:38:41.064Z,4.93
2018-10-18T17:43:44.082Z,3.47
2018-10-18T17:48:47.058Z,5.80
2018-10-18T17:53:50.128Z,1.27
2018-10-18T17:58:53.093Z,5.80
2018-10-18T18:03:56.199Z,20.13
2018-10-18T18:14:02.133Z,12.70
2018-10-18T18:19:05.309Z,41.27
2018-10-18T18:24:08.379Z,9.17
2018-10-18T18:29:11.465Z,12.50
2018-10-18T18:34:14.553Z,12.60
2018-10-18T18:39:18.213Z,9.63
2018-10-18T18:44:21.267Z,2.70
2018-10-18T18:49:24.304Z,7.73
2018-10-18T18:54:27.419Z,4.60
2018-10-18T18:59:30.491Z,7.67
2018-10-18T19:04:33.646Z,2.10
2018-10-18T19:09:36.661Z,4.30
2018-10-18T19:14:39.662Z,3.83
2018-10-18T19:19:42.824Z,14.07
2018-10-18T19:24:45.924Z,12.63
2018-10-18T19:29:49.005Z,7.30
2018-10-18T19:34:51.935Z,1.13
2018-10-18T19:39:54.935Z,5.67
2018-10-18T19:44:58.194Z,7.20
2018-10-18T19:50:02.077Z,5.67
2018-10-18T19:55:06.840Z,4.20
2018-10-18T20:00:10.087Z,4.53
2018-10-18T20:05:13.254Z,14.23
2018-10-18T20:10:16.458Z,7.37
2018-10-18T20:15:19.637Z,3.90
2018-10-18T20:20:22.679Z,2.20
2018-10-18T20:25:25.888Z,1.67
2018-10-18T20:30:28.816Z,6.57
2018-10-18T20:35:31.901Z,3.03
2018-10-18T20:40:34.923Z,4.70
2018-10-18T20:45:38.020Z,9.80
2018-10-18T20:50:41.032Z,0.40
2018-10-18T20:55:44.163Z,16.93
2018-10-18T21:00:47.208Z,5.40
2018-10-18T21:05:50.314Z,5.17
2018-10-18T21:10:53.425Z,1.70
2018-10-18T21:15:56.427Z,2.00
2018-10-18T21:20:59.474Z,5.60
2018-10-18T21:26:02.492Z,4.73
2018-10-18T21:31:06.880Z,1.43
2018-10-18T21:36:09.906Z,1.87
2018-10-18T21:41:13.129Z,0.50
2018-10-18T21:46:16.183Z,5.33
2018-10-18T21:51:19.265Z,2.53
2018-10-18T21:56:22.340Z,0.63
2018-10-18T22:01:25.349Z,1.13
2018-10-18T22:06:28.400Z,2.10
2018-10-18T22:11:31.405Z,1.13
2018-10-18T22:16:34.647Z,1.07
2018-10-18T22:21:38.596Z,0.97
2018-10-18T22:26:41.664Z,1.13
2018-10-18T22:31:44.651Z,0.50
2018-10-18T22:36:47.783Z,3.17
2018-10-18T22:41:50.777Z,1.33
2018-10-18T22:46:53.812Z,2.57
2018-10-18T22:51:56.812Z,0.83
2018-10-18T22:56:59.907Z,0.97
2018-10-18T23:02:02.891Z,0.30
2018-10-18T23:07:05.876Z,0.47
2018-10-18T23:12:08.896Z,0.40
2018-10-18T23:17:12.003Z,1.43
2018-10-18T23:22:15.156Z,0.30
2018-10-18T23:27:17.658Z,5.13
2018-10-18T23:32:20.819Z,0.30
2018-10-18T23:37:23.820Z,1.43
2018-10-18T23:42:26.799Z,0.40
2018-10-18T23:47:29.780Z,1.67
2018-10-18T23:52:32.787Z,1.07
2018-10-18T23:57:35.769Z,0.30
